createdAt,value
2022-08-20T00:07:48.346Z,15.83
2022-08-20T00:17:51.564Z,21.00
2022-08-20T00:27:53.151Z,20.03
2022-08-20T00:38:00.387Z,19.07
2022-08-20T00:48:02.597Z,16.97
2022-08-20T00:58:09.550Z,21.53
2022-08-20T01:08:11.754Z,15.73
2022-08-20T01:18:16.732Z,20.37
2022-08-20T01:28:23.792Z,22.43
2022-08-20T01:38:25.290Z,21.70
2022-08-20T01:48:27.832Z,20.57
2022-08-20T01:58:30.302Z,23.57
2022-08-20T02:08:33.855Z,21.50
2022-08-20T02:18:35.593Z,24.73
2022-08-20T02:28:37.241Z,23.50
2022-08-20T02:38:40.801Z,20.63
2022-08-20T02:48:42.551Z,22.40
2022-08-20T02:58:44.447Z,26.47
2022-08-20T03:08:45.937Z,25.30
2022-08-20T03:18:52.081Z,25.60
2022-08-20T03:28:53.836Z,26.97
2022-08-20T03:38:57.825Z,26.63
2022-08-20T03:49:00.522Z,31.03
2022-08-20T03:59:02.216Z,29.83
2022-08-20T04:09:04.181Z,34.67
2022-08-20T04:19:06.186Z,34.37
2022-08-20T04:29:08.365Z,35.20
2022-08-20T04:39:09.855Z,37.40
2022-08-20T04:49:11.431Z,37.80
2022-08-20T04:59:12.889Z,42.10
2022-08-20T05:09:14.399Z,42.10
2022-08-20T05:19:16.421Z,45.17
2022-08-20T05:29:18.050Z,49.77
2022-08-20T05:39:21.709Z,51.40
2022-08-20T05:49:23.182Z,46.20
2022-08-20T05:59:26.061Z,46.97
2022-08-20T06:09:31.463Z,50.73
2022-08-20T06:19:34.379Z,45.30
2022-08-20T06:29:36.654Z,40.20
2022-08-20T06:39:38.220Z,38.37
2022-08-20T06:49:39.986Z,37.97
2022-08-20T06:59:41.872Z,36.63
2022-08-20T07:09:44.062Z,33.07
2022-08-20T07:19:45.589Z,31.93
2022-08-20T07:30:10.923Z,30.47
2022-08-20T07:40:29.141Z,29.20
2022-08-20T07:50:31.732Z,30.00
2022-08-20T08:00:33.613Z,28.97
2022-08-20T08:10:37.581Z,26.37
2022-08-20T08:20:46.872Z,22.70
2022-08-20T08:30:48.974Z,23.90
2022-08-20T08:40:54.069Z,22.80
2022-08-20T08:51:11.411Z,20.67
2022-08-20T09:01:53.886Z,24.17
2022-08-20T09:11:48.738Z,24.10
2022-08-20T09:21:50.290Z,21.10
2022-08-20T09:31:51.831Z,18.03
2022-08-20T09:41:54.083Z,12.80
2022-08-20T09:51:56.278Z,11.47
2022-08-20T10:01:57.876Z,9.97
2022-08-20T10:11:59.372Z,9.17
2022-08-20T10:22:01.019Z,8.37
2022-08-20T10:32:14.628Z,8.27
2022-08-20T10:42:16.260Z,7.83
2022-08-20T10:52:18.258Z,10.23
2022-08-20T11:02:21.255Z,9.80
2022-08-20T11:12:23.432Z,8.17
2022-08-20T11:22:26.181Z,9.37
2022-08-20T11:32:27.755Z,7.90
2022-08-20T11:42:29.323Z,8.48
2022-08-20T11:52:31.482Z,11.15
2022-08-20T12:02:33.099Z,9.02
2022-08-20T12:12:35.643Z,7.78
2022-08-20T12:22:37.297Z,8.32
2022-08-20T12:32:39.360Z,9.23
2022-08-20T12:42:41.066Z,10.30
2022-08-20T12:52:43.031Z,11.47
2022-08-20T13:02:44.690Z,11.97
2022-08-20T13:12:46.156Z,12.03
2022-08-20T13:22:47.709Z,14.43
2022-08-20T13:32:49.472Z,13.80
2022-08-20T13:42:51.065Z,13.47
2022-08-20T13:52:52.885Z,13.23
2022-08-20T14:02:54.430Z,12.30
2022-08-20T14:12:56.201Z,5.47
2022-08-20T14:22:58.584Z,4.50
2022-08-20T14:33:00.096Z,4.80
2022-08-20T14:43:03.094Z,5.70
2022-08-20T14:53:05.396Z,7.23
2022-08-20T15:03:06.926Z,7.13
2022-08-20T15:13:08.829Z,7.63
2022-08-20T15:23:10.338Z,6.90
2022-08-20T15:33:11.917Z,6.53
2022-08-20T15:43:13.804Z,16.93
2022-08-20T15:53:31.899Z,18.80
2022-08-20T16:04:02.027Z,16.17
2022-08-20T16:14:15.521Z,17.33
2022-08-20T16:24:18.275Z,19.53
2022-08-20T16:34:34.048Z,15.07
2022-08-20T16:44:41.983Z,13.60
2022-08-20T16:54:44.685Z,11.10
2022-08-20T17:04:59.300Z,10.67
2022-08-20T17:15:01.830Z,12.97
2022-08-20T17:25:13.378Z,13.00
2022-08-20T17:35:23.762Z,10.57
2022-08-20T17:45:30.411Z,16.00
2022-08-20T17:55:35.173Z,15.63
2022-08-20T18:05:38.761Z,14.47
2022-08-20T18:15:53.695Z,14.20
2022-08-20T18:26:19.324Z,13.80
2022-08-20T18:36:20.729Z,13.57
2022-08-20T18:46:23.552Z,12.77
2022-08-20T18:56:37.236Z,12.80
2022-08-20T19:06:49.404Z,17.00
2022-08-20T19:16:59.765Z,18.67
2022-08-20T19:27:05.713Z,19.30
2022-08-20T19:37:34.932Z,20.10
2022-08-20T19:47:57.153Z,19.43
2022-08-20T19:58:02.018Z,17.17
2022-08-20T20:08:04.295Z,18.17
2022-08-20T20:18:07.815Z,16.90
2022-08-20T20:28:14.543Z,16.17
2022-08-20T20:38:27.888Z,19.30
2022-08-20T20:48:34.032Z,14.93
2022-08-20T20:58:36.566Z,16.57
2022-08-20T21:08:38.257Z,18.63
2022-08-20T21:18:40.984Z,20.70
2022-08-20T21:28:42.534Z,21.07
2022-08-20T21:38:44.000Z,16.60
2022-08-20T21:48:48.137Z,16.67
2022-08-20T21:58:50.693Z,17.33
2022-08-20T22:08:55.314Z,13.93
2022-08-20T22:18:56.814Z,13.40
2022-08-20T22:28:58.542Z,14.50
2022-08-20T22:39:00.196Z,14.97
2022-08-20T22:49:03.135Z,14.30
2022-08-20T22:59:05.277Z,16.80
2022-08-20T23:09:06.742Z,15.30
2022-08-20T23:19:11.123Z,15.50
2022-08-20T23:29:13.356Z,13.57
2022-08-20T23:39:25.119Z,19.10
2022-08-20T23:49:27.964Z,16.60
2022-08-20T23:59:29.468Z,15.27
